Time;durP1;ratioP1;P1;durP2;ratioP2;P2;SDS_P1;SDS_P2;PMS_P1;PMS_P2;Temp;Humidity;BMP_temperature;BMP_pressure;BME280_temperature;BME280_humidity;BME280_pressure;Samples;Min_cycle;Max_cycle;Signal;HPM_P1;HPM_P2
2022/11/07 00:00:37;;;;;;;3.95;3.10;;;12.40;67.70;;;;;;2347277;57;21048;-60
2022/11/07 00:03:04;;;;;;;4.55;3.10;;;12.50;67.70;;;;;;2347377;57;21520;-59
2022/11/07 00:05:32;;;;;;;4.35;3.20;;;12.40;67.70;;;;;;2347522;57;21109;-59
2022/11/07 00:07:59;;;;;;;4.03;3.20;;;12.50;67.60;;;;;;2346562;57;21524;-58
2022/11/07 00:10:26;;;;;;;4.78;3.70;;;12.50;67.60;;;;;;2347306;57;21057;-58
2022/11/07 00:12:54;;;;;;;5.68;3.85;;;12.50;67.60;;;;;;2347415;57;21049;-59
2022/11/07 00:15:21;;;;;;;3.90;3.35;;;12.50;67.60;;;;;;2347074;57;21595;-57
2022/11/07 00:17:48;;;;;;;5.82;3.67;;;12.50;67.60;;;;;;2347291;57;21069;-57
2022/11/07 00:20:16;;;;;;;5.87;3.85;;;12.50;67.60;;;;;;2346949;57;21041;-58
2022/11/07 00:22:43;;;;;;;5.57;3.65;;;12.50;67.60;;;;;;2347133;57;21121;-59
2022/11/07 00:25:11;;;;;;;5.25;3.50;;;12.50;67.60;;;;;;2346771;57;21587;-59
2022/11/07 00:27:38;;;;;;;6.32;3.42;;;12.50;68.30;;;;;;2346906;57;21061;-58
2022/11/07 00:30:07;;;;;;;5.43;3.80;;;12.50;67.60;;;;;;2347385;57;21037;-57
2022/11/07 00:32:34;;;;;;;4.45;3.37;;;12.50;67.70;;;;;;2347319;57;21536;-59
2022/11/07 00:35:01;;;;;;;4.60;3.40;;;12.50;67.80;;;;;;2347131;57;21104;-55
2022/11/07 00:37:29;;;;;;;4.72;3.37;;;12.50;67.70;;;;;;2347161;57;21053;-57
2022/11/07 00:39:56;;;;;;;4.55;3.25;;;12.60;67.90;;;;;;2347449;57;21053;-57
2022/11/07 00:42:23;;;;;;;5.75;3.78;;;12.60;67.80;;;;;;2347084;57;21509;-58
2022/11/07 00:44:50;;;;;;;5.53;3.33;;;12.50;67.60;;;;;;2346773;57;21037;-57
2022/11/07 00:47:18;;;;;;;4.93;3.12;;;12.60;67.90;;;;;;2347215;57;21540;-59
2022/11/07 00:49:45;;;;;;;6.55;4.05;;;12.60;67.90;;;;;;2347122;57;21101;-59
2022/11/07 00:52:12;;;;;;;5.85;4.03;;;12.50;67.90;;;;;;2347376;57;21042;-58
2022/11/07 00:54:40;;;;;;;4.53;3.42;;;12.50;68.00;;;;;;2347123;57;21049;-59
2022/11/07 00:57:07;;;;;;;5.40;3.45;;;12.50;68.10;;;;;;2347120;57;21536;-58
2022/11/07 00:59:34;;;;;;;5.00;3.80;;;12.60;68.30;;;;;;2346902;57;21038;-59
2022/11/07 01:02:02;;;;;;;6.50;3.58;;;12.50;68.30;;;;;;2347020;57;21058;-59
2022/11/07 01:07:14;;;;;;;7.57;3.95;;;12.60;68.20;;;;;;2347232;57;21005;-60
2022/11/07 01:09:42;;;;;;;5.10;3.62;;;12.60;68.10;;;;;;2346881;57;21621;-56
2022/11/07 01:12:09;;;;;;;5.62;3.92;;;12.60;68.20;;;;;;2347338;57;21112;-59
2022/11/07 01:14:37;;;;;;;5.50;3.50;;;12.60;68.20;;;;;;2346712;57;21588;-59
2022/11/07 01:17:04;;;;;;;4.53;3.72;;;12.60;68.20;;;;;;2347318;57;21069;-59
2022/11/07 01:19:31;;;;;;;5.10;3.55;;;12.60;68.30;;;;;;2347105;57;21588;-59
2022/11/07 01:21:58;;;;;;;5.00;3.12;;;12.60;68.30;;;;;;2347205;57;21057;-60
2022/11/07 01:24:26;;;;;;;5.70;4.05;;;12.60;68.40;;;;;;2346905;57;21038;-60
2022/11/07 01:26:54;;;;;;;5.90;3.37;;;12.70;68.50;;;;;;2347294;57;21505;-58
2022/11/07 01:29:21;;;;;;;3.53;2.80;;;12.70;68.50;;;;;;2347188;57;21591;-57
2022/11/07 01:31:49;;;;;;;5.07;3.70;;;12.70;68.60;;;;;;2346770;57;21029;-55
2022/11/07 01:34:17;;;;;;;6.45;3.90;;;12.70;68.40;;;;;;2347346;57;21053;-59
2022/11/07 01:36:44;;;;;;;6.05;3.60;;;12.70;68.70;;;;;;2346947;57;21552;-59
2022/11/07 01:39:12;;;;;;;6.35;3.40;;;12.70;68.40;;;;;;2346966;57;21121;-59
2022/11/07 01:41:41;;;;;;;5.22;3.40;;;12.70;68.50;;;;;;2347473;57;21050;-57
2022/11/07 01:44:45;;;;;;;6.00;3.40;;;12.70;68.70;;;;;;2347180;57;21528;-60
2022/11/07 01:47:12;;;;;;;6.28;3.37;;;12.70;68.70;;;;;;2347202;57;22100;-60
2022/11/07 01:49:41;;;;;;;5.28;3.40;;;12.70;68.70;;;;;;2347130;57;21151;-60
2022/11/07 01:52:13;;;;;;;4.75;3.37;;;12.70;68.90;;;;;;2347136;57;22184;-60
2022/11/07 01:54:47;;;;;;;4.47;3.05;;;12.70;68.90;;;;;;2347289;57;21045;-59
2022/11/07 01:57:19;;;;;;;4.50;2.90;;;12.80;68.90;;;;;;2347014;57;21572;-59
2022/11/07 01:59:48;;;;;;;5.62;3.53;;;12.80;68.90;;;;;;2347170;57;21041;-60
2022/11/07 02:02:15;;;;;;;6.05;3.25;;;12.80;68.90;;;;;;2347401;57;21618;-58
2022/11/07 02:04:43;;;;;;;4.97;3.30;;;12.70;68.90;;;;;;2346561;57;21647;-58
2022/11/07 02:07:17;;;;;;;4.60;3.22;;;12.80;69.00;;;;;;2347292;57;21200;-59
2022/11/07 02:09:45;;;;;;;4.30;2.72;;;12.80;69.80;;;;;;2346920;57;21555;-60
2022/11/07 02:12:13;;;;;;;7.85;4.12;;;12.80;68.90;;;;;;2347258;57;21116;-59
2022/11/07 02:14:42;;;;;;;6.55;3.47;;;12.80;68.90;;;;;;2346785;56;21109;-60
2022/11/07 02:17:10;;;;;;;5.07;3.00;;;12.80;68.80;;;;;;2346806;57;21576;-57
2022/11/07 02:19:42;;;;;;;6.25;3.42;;;12.80;68.80;;;;;;2347283;57;21497;-60
2022/11/07 02:22:18;;;;;;;5.65;3.20;;;12.80;68.90;;;;;;2346827;57;21496;-60
2022/11/07 02:24:48;;;;;;;4.97;3.47;;;12.80;68.90;;;;;;2346972;57;21529;-60
2022/11/07 02:27:19;;;;;;;8.25;3.10;;;12.90;68.90;;;;;;2346500;57;21512;-60
2022/11/07 02:29:51;;;;;;;4.22;2.85;;;12.90;68.80;;;;;;2347011;57;21089;-60
2022/11/07 02:32:18;;;;;;;4.32;2.67;;;12.90;68.80;;;;;;2347137;57;21029;-60
2022/11/07 02:34:54;;;;;;;4.45;3.03;;;12.90;68.90;;;;;;2346559;57;21058;-60
2022/11/07 02:37:25;;;;;;;6.20;3.10;;;12.90;68.90;;;;;;2347138;57;21579;-60
2022/11/07 02:39:53;;;;;;;4.18;2.83;;;12.90;68.80;;;;;;2347403;57;21505;-59
2022/11/07 02:42:21;;;;;;;5.10;3.33;;;13.00;68.90;;;;;;2347158;57;21497;-60
2022/11/07 02:44:48;;;;;;;6.50;3.17;;;13.00;68.70;;;;;;2347285;57;21544;-60
2022/11/07 02:47:16;;;;;;;4.18;3.03;;;13.00;68.70;;;;;;2347097;57;21572;-60
2022/11/07 02:49:43;;;;;;;6.78;2.78;;;13.00;68.60;;;;;;2346239;57;21124;-60
2022/11/07 02:52:10;;;;;;;3.50;2.80;;;13.10;68.60;;;;;;2346938;57;21050;-60
2022/11/07 02:54:38;;;;;;;6.20;3.00;;;13.10;68.70;;;;;;2346325;57;21835;-60
2022/11/07 02:57:05;;;;;;;5.87;3.05;;;13.10;68.60;;;;;;2346981;57;21072;-60
2022/11/07 02:59:32;;;;;;;5.40;3.20;;;13.10;68.60;;;;;;2346914;57;21049;-58
2022/11/07 03:02:00;;;;;;;6.07;2.85;;;13.10;68.60;;;;;;2347411;57;21041;-60
2022/11/07 03:04:27;;;;;;;5.40;3.35;;;13.10;68.60;;;;;;2346661;57;21109;-59
2022/11/07 03:06:54;;;;;;;5.00;3.25;;;13.10;68.50;;;;;;2347245;57;21525;-60
2022/11/07 03:09:22;;;;;;;5.78;3.25;;;13.10;69.20;;;;;;2346853;57;21133;-60
2022/11/07 03:11:49;;;;;;;3.55;2.80;;;13.10;68.70;;;;;;2346564;57;21493;-58
2022/11/07 03:14:17;;;;;;;4.30;3.17;;;13.10;68.70;;;;;;2347452;57;21576;-60
2022/11/07 03:16:44;;;;;;;3.47;3.00;;;13.10;68.80;;;;;;2347304;57;21116;-59
2022/11/07 03:19:11;;;;;;;8.95;3.97;;;13.10;68.80;;;;;;2347429;57;21049;-59
2022/11/07 03:21:38;;;;;;;6.28;3.03;;;13.10;68.90;;;;;;2347330;57;21117;-60
2022/11/07 03:24:06;;;;;;;6.20;3.30;;;13.10;69.00;;;;;;2347439;57;21742;-60
2022/11/07 03:26:34;;;;;;;4.55;2.85;;;13.20;69.00;;;;;;2346866;57;21496;-60
2022/11/07 03:29:01;;;;;;;4.70;2.70;;;13.20;69.00;;;;;;2346319;57;21085;-59
2022/11/07 03:31:28;;;;;;;4.53;2.92;;;13.20;69.10;;;;;;2347272;57;21093;-60
2022/11/07 03:33:56;;;;;;;4.28;2.53;;;13.20;69.10;;;;;;2347545;57;21512;-60
2022/11/07 03:36:23;;;;;;;3.97;2.58;;;13.20;69.20;;;;;;2347314;57;21128;-60
2022/11/07 03:38:50;;;;;;;5.00;2.75;;;13.20;69.30;;;;;;2347478;57;21047;-60
2022/11/07 03:41:17;;;;;;;6.10;2.65;;;13.20;69.20;;;;;;2346710;57;21121;-59
2022/11/07 03:43:45;;;;;;;3.92;2.33;;;13.20;69.30;;;;;;2346746;57;21655;-60
2022/11/07 03:46:14;;;;;;;4.18;2.80;;;13.20;69.30;;;;;;2346994;57;21054;-58
2022/11/07 03:48:42;;;;;;;5.07;3.20;;;13.30;70.00;;;;;;2347320;57;21528;-60
2022/11/07 03:51:10;;;;;;;4.65;2.55;;;13.30;69.20;;;;;;2347359;57;21033;-60
2022/11/07 03:53:38;;;;;;;5.53;2.70;;;13.30;69.20;;;;;;2346914;57;21037;-60
2022/11/07 03:56:08;;;;;;;6.50;2.72;;;13.30;69.10;;;;;;2347014;57;21038;-60
2022/11/07 03:58:37;;;;;;;9.45;3.15;;;13.30;69.10;;;;;;2347289;57;21022;-59
2022/11/07 04:01:05;;;;;;;7.15;2.85;;;13.30;69.10;;;;;;2346802;57;21109;-60
2022/11/07 04:03:33;;;;;;;6.93;2.75;;;13.30;69.20;;;;;;2347149;57;21113;-59
2022/11/07 04:06:00;;;;;;;4.25;2.72;;;13.30;69.30;;;;;;2347385;57;21512;-59
2022/11/07 04:08:27;;;;;;;4.95;2.75;;;13.30;69.40;;;;;;2347219;57;21115;-58
2022/11/07 04:10:54;;;;;;;6.90;2.72;;;13.30;69.50;;;;;;2347463;57;21136;-60
2022/11/07 04:18:55;;;;;;;8.55;2.95;;;13.30;69.60;;;;;;2346958;57;21029;-60
2022/11/07 04:21:23;;;;;;;6.85;3.03;;;13.30;69.50;;;;;;2346824;57;21620;-60
2022/11/07 04:23:50;;;;;;;4.97;2.70;;;13.30;69.70;;;;;;2347413;57;21105;-59
2022/11/07 04:29:03;;;;;;;9.02;3.17;;;13.40;69.60;;;;;;2346757;57;21026;-60
2022/11/07 04:31:30;;;;;;;5.55;3.08;;;13.40;69.40;;;;;;2346963;57;21061;-60
2022/11/07 04:33:58;;;;;;;5.65;3.10;;;13.40;69.50;;;;;;2347370;57;21870;-58
2022/11/07 04:39:02;;;;;;;7.70;2.85;;;13.40;69.60;;;;;;2356489;57;22585;-57
2022/11/07 04:41:29;;;;;;;4.32;2.90;;;13.40;69.70;;;;;;2348383;57;22113;-58
2022/11/07 04:43:56;;;;;;;6.93;2.72;;;13.40;69.80;;;;;;2347759;57;21125;-58
2022/11/07 04:46:23;;;;;;;4.82;2.45;;;13.40;70.00;;;;;;2373426;56;21518;-58
2022/11/07 04:48:50;;;;;;;4.68;2.37;;;13.40;69.80;;;;;;2374875;56;21035;-57
2022/11/07 04:51:21;;;;;;;6.22;2.72;;;13.40;70.00;;;;;;2375590;56;21055;-58
2022/11/07 04:53:49;;;;;;;6.18;2.65;;;13.40;69.90;;;;;;2375726;56;21578;-57
2022/11/07 04:56:16;;;;;;;6.70;2.67;;;13.50;69.90;;;;;;2375550;56;21113;-59
2022/11/07 04:58:43;;;;;;;4.28;2.58;;;13.50;70.00;;;;;;2375789;56;21067;-58
2022/11/07 05:01:11;;;;;;;7.20;2.95;;;13.50;70.00;;;;;;2374956;56;21447;-58
2022/11/07 05:03:38;;;;;;;6.05;2.87;;;13.50;70.00;;;;;;2375569;56;21117;-57
2022/11/07 05:06:09;;;;;;;5.72;2.30;;;13.60;70.00;;;;;;2375894;56;21051;-58
2022/11/07 05:08:36;;;;;;;5.60;3.10;;;13.60;69.90;;;;;;2375651;56;21533;-57
2022/11/07 05:11:03;;;;;;;4.55;2.42;;;13.60;70.00;;;;;;2375411;56;21047;-58
2022/11/07 05:13:31;;;;;;;7.00;3.12;;;13.60;70.00;;;;;;2375563;56;21554;-55
2022/11/07 05:15:58;;;;;;;5.82;3.10;;;13.60;69.90;;;;;;2375597;56;22146;-57
2022/11/07 05:18:26;;;;;;;3.25;2.80;;;13.60;70.00;;;;;;2375878;56;21114;-58
2022/11/07 05:20:53;;;;;;;5.82;2.90;;;13.60;70.00;;;;;;2375322;56;21432;-58
2022/11/07 05:23:21;;;;;;;7.62;3.28;;;13.60;70.00;;;;;;2375698;56;21047;-58
2022/11/07 05:25:49;;;;;;;7.07;3.20;;;13.60;70.20;;;;;;2375385;56;21708;-58
2022/11/07 05:28:19;;;;;;;5.80;2.60;;;13.60;70.20;;;;;;2375292;56;21063;-58
2022/11/07 05:30:46;;;;;;;5.82;3.00;;;13.60;70.20;;;;;;2375646;56;21054;-58
2022/11/07 05:33:16;;;;;;;6.93;2.78;;;13.60;70.20;;;;;;2374867;56;21194;-58
2022/11/07 05:38:20;;;;;;;7.97;3.03;;;13.60;70.30;;;;;;2356259;57;22524;-57
2022/11/07 05:40:47;;;;;;;4.28;3.00;;;13.70;70.30;;;;;;2348295;57;21045;-57
2022/11/07 05:43:15;;;;;;;8.32;2.87;;;13.70;70.40;;;;;;2348388;57;21096;-56
2022/11/07 05:45:42;;;;;;;4.30;2.80;;;13.70;70.50;;;;;;2365266;56;21533;-58
2022/11/07 05:48:12;;;;;;;6.22;2.60;;;13.60;70.30;;;;;;2376098;56;21502;-58
2022/11/07 05:50:40;;;;;;;6.85;2.97;;;13.60;70.40;;;;;;2375924;56;21590;-58
2022/11/07 05:53:07;;;;;;;7.37;3.10;;;13.70;71.00;;;;;;2375690;56;21058;-58
2022/11/07 05:55:35;;;;;;;6.25;3.22;;;13.60;70.20;;;;;;2375701;56;21105;-58
2022/11/07 05:58:08;;;;;;;12.05;3.70;;;13.70;70.30;;;;;;2375868;56;21601;-58
2022/11/07 06:00:35;;;;;;;;;;;13.70;70.30;;;;;;2379707;56;21575;-58
2022/11/07 06:03:02;;;;;;;9.35;3.08;;;13.80;69.90;;;;;;2375451;56;20419;-58
2022/11/07 06:05:30;;;;;;;5.28;3.05;;;13.70;69.60;;;;;;2375989;56;21090;-58
2022/11/07 06:07:57;;;;;;;5.60;2.80;;;13.70;69.80;;;;;;2375808;56;21551;-56
2022/11/07 06:10:25;;;;;;;6.80;2.70;;;13.70;69.90;;;;;;2375624;56;21113;-57
2022/11/07 06:12:58;;;;;;;5.75;3.03;;;13.70;70.10;;;;;;2375800;56;21106;-57
2022/11/07 06:15:26;;;;;;;8.60;3.95;;;13.60;70.10;;;;;;2375196;56;21550;-57
2022/11/07 06:20:30;;;;;;;17.20;6.07;;;13.70;74.50;;;;;;2355506;57;22094;-57
2022/11/07 06:22:58;;;;;;;24.17;8.73;;;13.70;79.30;;;;;;2348327;57;21600;-58
2022/11/07 06:25:25;;;;;;;26.73;8.23;;;13.80;82.10;;;;;;2362213;56;21604;-56
2022/11/07 06:27:57;;;;;;;46.53;11.38;;;13.90;83.30;;;;;;2376080;56;21197;-58
2022/11/07 06:30:24;;;;;;;52.17;15.60;;;13.90;85.50;;;;;;2375714;56;21518;-59
2022/11/07 06:32:52;;;;;;;40.85;11.38;;;14.00;86.20;;;;;;2375481;56;21606;-57
2022/11/07 06:35:19;;;;;;;32.63;8.95;;;14.10;86.90;;;;;;2375920;56;21043;-56
2022/11/07 06:37:46;;;;;;;12.88;4.62;;;14.20;86.80;;;;;;2376166;56;21538;-57
2022/11/07 06:40:14;;;;;;;24.92;6.28;;;14.30;84.50;;;;;;2375880;56;21047;-55
2022/11/07 06:42:41;;;;;;;22.50;5.62;;;14.30;81.70;;;;;;2375678;56;21549;-58
2022/11/07 06:45:10;;;;;;;21.00;4.43;;;14.40;80.00;;;;;;2375631;56;21522;-58
2022/11/07 06:47:37;;;;;;;17.87;3.92;;;14.40;78.50;;;;;;2375600;56;21656;-57
2022/11/07 06:50:07;;;;;;;7.68;2.85;;;14.50;75.30;;;;;;2375592;56;21133;-58
2022/11/07 06:52:34;;;;;;;16.17;3.83;;;14.50;72.90;;;;;;2375535;56;21042;-59
2022/11/07 06:55:02;;;;;;;9.07;2.92;;;14.50;71.70;;;;;;2375849;56;21055;-59
2022/11/07 06:57:29;;;;;;;11.50;2.85;;;14.50;70.80;;;;;;2375690;56;21614;-59
2022/11/07 06:59:58;;;;;;;8.05;3.33;;;14.50;70.70;;;;;;2376141;56;21710;-59
2022/11/07 07:02:25;;;;;;;9.30;2.87;;;14.50;69.60;;;;;;2375432;56;21537;-58
2022/11/07 07:04:52;;;;;;;7.60;3.20;;;14.40;69.30;;;;;;2374058;56;21059;-59
2022/11/07 07:07:20;;;;;;;7.90;3.33;;;14.40;69.20;;;;;;2375498;56;21526;-61
2022/11/07 07:09:47;;;;;;;6.72;2.72;;;14.30;69.00;;;;;;2375698;56;21788;-61
2022/11/07 07:12:14;;;;;;;11.32;3.53;;;14.30;69.00;;;;;;2375871;56;21042;-61
2022/11/07 07:14:42;;;;;;;13.25;4.15;;;14.30;69.10;;;;;;2375877;56;21526;-60
2022/11/07 07:17:11;;;;;;;9.60;3.15;;;14.30;69.10;;;;;;2375464;56;21106;-62
2022/11/07 07:19:38;;;;;;;6.95;3.30;;;14.30;69.20;;;;;;2375712;56;21593;-62
2022/11/07 07:22:10;;;;;;;5.68;2.95;;;14.20;69.40;;;;;;2375336;56;21039;-61
2022/11/07 07:24:37;;;;;;;9.25;2.95;;;14.20;69.30;;;;;;2375397;56;21494;-62
2022/11/07 07:27:04;;;;;;;9.73;3.17;;;14.20;69.20;;;;;;2374906;56;21593;-57
2022/11/07 07:29:32;;;;;;;10.38;2.50;;;14.20;69.30;;;;;;2374938;56;21094;-60
2022/11/07 07:31:59;;;;;;;8.30;2.92;;;14.20;69.50;;;;;;2373425;56;21102;-57
2022/11/07 07:34:27;;;;;;;8.48;3.22;;;14.20;69.70;;;;;;2373366;56;21039;-57
2022/11/07 07:39:30;;;;;;;4.75;2.90;;;14.10;69.80;;;;;;2357402;57;22121;-56
2022/11/07 07:44:35;;;;;;;3.60;2.80;;;14.10;70.00;;;;;;2351709;57;22120;-59
2022/11/07 07:47:02;;;;;;;11.32;3.75;;;14.20;70.20;;;;;;2347526;57;21623;-60
2022/11/07 07:49:29;;;;;;;8.65;2.75;;;14.10;70.10;;;;;;2380902;53;75440;-77
2022/11/07 07:52:00;;;;;;;5.55;2.97;;;14.10;70.10;;;;;;2245751;60;21147;-80
2022/11/07 07:54:27;;;;;;;9.45;3.22;;;14.10;70.20;;;;;;2248149;60;21063;-77
2022/11/07 07:56:54;;;;;;;9.32;3.40;;;14.20;70.30;;;;;;2247126;60;21079;-77
2022/11/07 07:59:22;;;;;;;11.57;6.68;;;14.10;70.30;;;;;;2248259;60;21552;-77
2022/11/07 08:01:49;;;;;;;8.93;4.00;;;14.10;70.30;;;;;;2244977;60;21099;-77
2022/11/07 08:04:16;;;;;;;8.60;4.53;;;14.20;70.40;;;;;;2247129;60;22069;-77
2022/11/07 08:06:43;;;;;;;11.52;5.35;;;14.20;70.60;;;;;;2248521;60;21063;-77
2022/11/07 08:09:10;;;;;;;15.57;10.88;;;14.20;70.40;;;;;;2246865;60;21102;-77
2022/11/07 08:11:38;;;;;;;13.25;7.97;;;14.20;70.30;;;;;;2247864;60;21072;-77
2022/11/07 08:14:05;;;;;;;12.68;6.50;;;14.20;70.30;;;;;;2247591;60;21103;-77
2022/11/07 08:16:32;;;;;;;16.10;4.35;;;14.30;70.40;;;;;;2248023;60;21107;-78
2022/11/07 08:18:59;;;;;;;5.62;3.40;;;14.30;70.20;;;;;;2248681;60;21201;-77
2022/11/07 08:21:26;;;;;;;8.02;3.28;;;14.30;70.20;;;;;;2247903;60;21143;-77
2022/11/07 08:26:30;;;;;;;13.62;3.50;;;14.30;70.20;;;;;;2381592;56;22132;-62
2022/11/07 08:28:57;;;;;;;9.65;2.90;;;14.30;70.30;;;;;;2351402;57;21041;-61
2022/11/07 08:31:25;;;;;;;9.73;3.20;;;14.30;70.40;;;;;;2350155;57;21033;-62
2022/11/07 08:33:52;;;;;;;8.38;3.40;;;14.30;70.10;;;;;;2351165;57;21018;-61
2022/11/07 08:36:19;;;;;;;9.43;2.80;;;14.40;70.20;;;;;;2351224;57;21093;-62
2022/11/07 08:38:47;;;;;;;6.57;2.90;;;14.30;70.10;;;;;;2351557;57;21041;-62
2022/11/07 08:41:14;;;;;;;8.55;2.80;;;14.40;69.90;;;;;;2349720;57;21053;-62
2022/11/07 08:43:42;;;;;;;8.55;3.00;;;14.40;70.00;;;;;;2352208;57;21038;-61
2022/11/07 08:46:09;;;;;;;7.78;3.30;;;14.40;70.00;;;;;;2351543;57;21034;-62
2022/11/07 08:48:38;;;;;;;15.20;6.70;;;14.40;69.90;;;;;;2351454;57;21524;-62
2022/11/07 08:51:07;;;;;;;46.20;22.98;;;14.40;70.10;;;;;;2351637;57;21049;-62
2022/11/07 08:53:34;;;;;;;36.72;14.85;;;14.50;69.90;;;;;;2351326;57;21065;-62
2022/11/07 08:56:03;;;;;;;44.88;25.60;;;14.50;69.80;;;;;;2351711;57;21494;-62
2022/11/07 08:58:31;;;;;;;19.48;10.27;;;14.50;69.80;;;;;;2351259;57;21065;-62
2022/11/07 09:00:59;;;;;;;19.67;9.00;;;14.60;69.60;;;;;;2351646;57;21025;-62
2022/11/07 09:03:27;;;;;;;11.70;5.37;;;14.60;69.50;;;;;;2351975;57;21810;-62
2022/11/07 09:05:57;;;;;;;15.25;8.95;;;14.60;69.40;;;;;;2348220;57;21049;-62
2022/11/07 09:08:25;;;;;;;15.48;8.23;;;14.60;69.10;;;;;;2349890;57;21385;-62
2022/11/07 09:13:31;;;;;;;10.43;4.30;;;14.70;68.90;;;;;;2540444;54;22126;-63
2022/11/07 09:15:59;;;;;;;9.45;3.28;;;14.70;68.90;;;;;;2314099;58;21163;-62
2022/11/07 09:18:28;;;;;;;9.23;2.85;;;14.70;68.90;;;;;;2321043;58;21108;-63
2022/11/07 09:23:32;;;;;;;10.32;3.12;;;14.70;68.90;;;;;;2608240;53;22104;-62
2022/11/07 09:26:00;;;;;;;6.55;2.90;;;14.80;69.00;;;;;;2370362;56;21045;-62
2022/11/07 09:28:27;;;;;;;6.55;3.15;;;14.80;68.80;;;;;;2378467;56;21667;-62
2022/11/07 09:30:56;;;;;;;6.62;3.17;;;14.80;69.00;;;;;;2377556;56;21047;-62
2022/11/07 09:33:24;;;;;;;12.10;2.62;;;14.80;68.80;;;;;;2377987;56;21094;-62
2022/11/07 09:38:29;;;;;;;9.27;3.35;;;14.90;69.00;;;;;;2357108;57;22077;-62
2022/11/07 09:41:03;;;;;;;9.07;3.17;;;14.90;68.70;;;;;;2349479;57;21141;-59
2022/11/07 09:44:00;;;;;;;7.12;2.87;;;15.00;68.60;;;;;;2347279;57;22167;-58
2022/11/07 09:46:35;;;;;;;7.43;2.70;;;15.00;68.70;;;;;;2372805;56;21561;-60
2022/11/07 09:49:11;;;;;;;8.80;2.78;;;15.00;68.40;;;;;;2375324;56;21042;-60
2022/11/07 09:51:41;;;;;;;5.95;2.50;;;15.10;68.40;;;;;;2374991;56;21087;-59
2022/11/07 09:54:13;;;;;;;5.57;2.72;;;15.10;68.40;;;;;;2375264;56;21035;-59
2022/11/07 09:56:42;;;;;;;7.75;2.78;;;15.10;68.30;;;;;;2374962;56;21075;-60
2022/11/07 09:59:20;;;;;;;7.20;2.40;;;15.20;68.20;;;;;;2374843;56;21526;-59
2022/11/07 10:01:47;;;;;;;8.65;2.60;;;15.20;68.00;;;;;;2375401;56;21181;-59
2022/11/07 10:04:18;;;;;;;7.47;2.35;;;15.20;67.90;;;;;;2375417;56;21130;-60
2022/11/07 10:06:50;;;;;;;7.55;2.53;;;15.30;68.10;;;;;;2374958;56;21129;-59
2022/11/07 10:09:24;;;;;;;7.85;2.55;;;15.40;68.10;;;;;;2375576;56;21090;-60
2022/11/07 10:12:00;;;;;;;6.82;2.95;;;15.40;67.40;;;;;;2375371;56;21035;-60
2022/11/07 10:14:40;;;;;;;7.93;2.70;;;15.40;67.30;;;;;;2375225;56;21506;-60
2022/11/07 10:17:16;;;;;;;8.45;2.58;;;15.50;67.20;;;;;;2375199;56;21054;-59
2022/11/07 10:19:55;;;;;;;8.75;2.47;;;15.50;66.90;;;;;;2375272;56;21493;-60
2022/11/07 10:22:33;;;;;;;6.03;2.33;;;15.40;67.00;;;;;;2374925;56;21357;-60
2022/11/07 10:25:17;;;;;;;11.63;2.97;;;15.50;67.00;;;;;;2375405;56;21113;-59
2022/11/07 10:27:46;;;;;;;5.65;2.30;;;15.50;66.40;;;;;;2375433;56;21660;-59
2022/11/07 10:30:18;;;;;;;6.57;3.58;;;15.50;66.40;;;;;;2375108;56;22495;-58
2022/11/07 10:32:55;;;;;;;12.75;5.47;;;15.50;66.50;;;;;;2375458;56;22105;-60
2022/11/07 10:35:29;;;;;;;8.23;4.47;;;15.50;66.60;;;;;;2375187;56;21637;-59
2022/11/07 10:37:59;;;;;;;11.43;6.05;;;15.50;66.30;;;;;;2375564;56;21668;-60
2022/11/07 10:40:34;;;;;;;8.63;4.85;;;15.60;66.40;;;;;;2375078;56;21549;-59
2022/11/07 10:43:06;;;;;;;10.85;4.00;;;15.60;66.50;;;;;;2375207;56;21060;-60
2022/11/07 10:45:34;;;;;;;7.57;4.55;;;15.60;67.60;;;;;;2375544;56;21517;-60
2022/11/07 10:48:03;;;;;;;4.25;3.25;;;15.50;67.20;;;;;;2374439;56;21573;-59
2022/11/07 10:50:31;;;;;;;12.05;5.95;;;15.60;67.00;;;;;;2374495;56;21059;-60
2022/11/07 10:55:44;;;;;;;14.55;3.50;;;15.60;66.70;;;;;;2340663;57;22123;-59
2022/11/07 10:58:19;;;;;;;9.68;3.62;;;15.60;66.60;;;;;;2347878;57;21100;-60
2022/11/07 11:00:57;;;;;;;7.15;3.20;;;15.60;66.50;;;;;;2347607;57;21085;-60
2022/11/07 11:03:28;;;;;;;9.90;3.53;;;15.60;66.60;;;;;;2347457;57;21014;-60
2022/11/07 11:05:55;;;;;;;10.85;4.22;;;15.60;66.30;;;;;;2347382;57;21037;-60
2022/11/07 11:08:30;;;;;;;8.93;3.45;;;15.60;66.50;;;;;;2347685;57;21050;-58
2022/11/07 11:10:58;;;;;;;7.25;2.42;;;15.70;66.40;;;;;;2346990;57;21573;-59
2022/11/07 11:13:30;;;;;;;8.23;2.90;;;15.60;66.00;;;;;;2347324;57;21137;-60
2022/11/07 11:16:06;;;;;;;6.82;3.22;;;15.70;66.00;;;;;;2347623;57;21102;-60
2022/11/07 11:18:33;;;;;;;4.80;2.30;;;15.70;65.70;;;;;;2347102;57;21492;-60
2022/11/07 11:21:02;;;;;;;8.48;2.83;;;15.70;65.90;;;;;;2347340;57;21054;-59
2022/11/07 11:23:34;;;;;;;6.00;3.85;;;15.70;65.40;;;;;;2347655;57;21611;-60
2022/11/07 11:28:43;;;;;;;12.88;8.32;;;15.70;65.50;;;;;;2356054;57;22066;-58
2022/11/07 11:31:20;;;;;;;8.32;5.18;;;15.80;65.50;;;;;;2347556;57;21569;-59
2022/11/07 11:33:50;;;;;;;11.52;5.95;;;15.80;65.40;;;;;;2347784;57;21599;-58
2022/11/07 11:36:24;;;;;;;6.50;3.67;;;15.90;65.20;;;;;;2371214;56;21585;-59
2022/11/07 11:41:49;;;;;;;9.68;2.97;;;16.00;65.20;;;;;;2356366;57;22691;-59
2022/11/07 11:44:23;;;;;;;6.72;2.60;;;16.00;65.10;;;;;;2348846;56;21069;-59
2022/11/07 11:46:56;;;;;;;6.37;2.83;;;16.00;64.90;;;;;;2375671;56;21506;-59
2022/11/07 11:49:31;;;;;;;6.37;2.65;;;16.00;65.00;;;;;;2375749;56;21038;-59
2022/11/07 11:52:02;;;;;;;6.97;3.12;;;16.00;64.90;;;;;;2375664;56;21587;-59
2022/11/07 11:54:29;;;;;;;6.68;2.80;;;16.00;65.00;;;;;;2375793;56;21561;-60
2022/11/07 11:57:01;;;;;;;7.15;3.30;;;16.00;65.20;;;;;;2375403;56;21055;-59
2022/11/07 12:00:03;;;;;;;7.45;2.85;;;16.00;65.10;;;;;;2375630;56;21510;-60
2022/11/07 12:02:59;;;;;;;6.82;3.55;;;16.10;65.30;;;;;;2375566;56;21111;-60
2022/11/07 12:05:45;;;;;;;9.70;3.47;;;16.00;65.00;;;;;;2375437;56;21541;-60
2022/11/07 12:08:25;;;;;;;11.98;3.20;;;16.00;64.90;;;;;;2375243;56;21215;-58
2022/11/07 12:13:40;;;;;;;34.13;17.17;;;16.00;65.30;;;;;;2358435;57;22046;-63
2022/11/07 12:16:21;;;;;;;49.53;22.87;;;16.00;65.30;;;;;;2350323;57;21121;-65
2022/11/07 12:18:58;;;;;;;10.25;4.97;;;16.00;65.40;;;;;;2350245;57;21034;-62
2022/11/07 12:21:31;;;;;;;13.48;3.85;;;16.00;65.40;;;;;;2349301;57;21113;-62
2022/11/07 12:24:15;;;;;;;10.95;3.70;;;16.00;65.20;;;;;;2350805;57;21105;-62
2022/11/07 12:26:50;;;;;;;9.60;3.42;;;16.00;65.40;;;;;;2350729;57;21050;-62
2022/11/07 12:29:27;;;;;;;5.75;2.80;;;16.00;65.50;;;;;;2350645;57;21081;-63
2022/11/07 12:32:09;;;;;;;10.48;3.20;;;15.90;65.50;;;;;;2350558;57;21121;-63
2022/11/07 12:34:53;;;;;;;11.32;3.85;;;15.90;65.60;;;;;;2350657;57;21049;-63
2022/11/07 12:40:23;;;;;;;15.35;3.47;;;15.90;65.40;;;;;;2359497;57;22596;-63
2022/11/07 12:43:01;;;;;;;8.02;3.85;;;15.90;66.50;;;;;;2351908;57;21069;-62
2022/11/07 12:45:44;;;;;;;8.13;3.22;;;15.90;65.90;;;;;;2366205;56;21090;-63
2022/11/07 12:48:43;;;;;;;9.75;4.22;;;15.90;66.30;;;;;;2378896;56;21051;-63
2022/11/07 12:51:26;;;;;;;10.55;4.65;;;15.80;66.50;;;;;;2372811;56;21545;-62
2022/11/07 12:54:01;;;;;;;17.98;4.62;;;15.90;66.70;;;;;;2378757;56;21608;-63
2022/11/07 12:56:33;;;;;;;19.33;4.85;;;15.90;67.00;;;;;;2378694;56;21071;-63
2022/11/07 13:01:45;;;;;;;14.05;3.85;;;15.80;67.00;;;;;;2539590;53;22115;-62
2022/11/07 13:04:13;;;;;;;;;;;15.80;67.20;;;;;;2298394;58;21055;-62
2022/11/07 13:09:31;;;;;;;8.77;3.20;;;15.80;67.00;;;;;;2361426;57;22069;-62
2022/11/07 13:14:44;;;;;;;9.80;3.97;;;15.90;66.90;;;;;;2512463;54;28073;-62
2022/11/07 13:17:16;;;;;;;7.70;3.33;;;15.80;68.30;;;;;;2295162;58;21039;-63
2022/11/07 13:19:45;;;;;;;11.48;3.50;;;15.90;67.60;;;;;;2295407;58;21098;-62
2022/11/07 13:22:30;;;;;;;8.40;3.30;;;15.90;67.10;;;;;;2295131;58;21106;-62
2022/11/07 13:25:20;;;;;;;11.25;3.67;;;15.90;66.60;;;;;;2295245;58;21119;-62
2022/11/07 13:28:23;;;;;;;6.68;3.20;;;16.00;66.60;;;;;;2294267;58;21198;-63
2022/11/07 13:30:56;;;;;;;7.50;2.95;;;16.00;66.60;;;;;;2295749;58;21051;-63
2022/11/07 13:36:14;;;;;;;10.73;4.18;;;16.00;66.40;;;;;;2382643;56;22147;-62
2022/11/07 13:38:48;;;;;;;10.52;3.72;;;16.00;66.50;;;;;;2408212;56;21075;-63
2022/11/07 13:41:18;;;;;;;13.32;4.32;;;16.00;66.40;;;;;;2408352;56;21119;-63
2022/11/07 13:43:50;;;;;;;11.57;3.72;;;16.00;66.50;;;;;;2409175;56;21055;-63
2022/11/07 13:46:24;;;;;;;9.53;3.00;;;16.00;66.50;;;;;;2408320;56;21052;-63
2022/11/07 13:48:56;;;;;;;6.90;3.05;;;16.00;66.40;;;;;;2408463;56;21122;-63
2022/11/07 13:51:31;;;;;;;8.43;3.05;;;16.00;66.60;;;;;;2408691;56;22104;-63
2022/11/07 13:56:46;;;;;;;7.10;2.87;;;16.00;66.80;;;;;;2574986;54;22532;-63
2022/11/07 13:59:31;;;;;;;5.93;2.83;;;16.00;66.90;;;;;;2322447;58;21056;-63
2022/11/07 14:01:58;;;;;;;10.60;4.07;;;16.00;67.00;;;;;;2322340;58;21064;-63